sensor_id;sensor_type;location;lat;lon;timestamp;P1;durP1;ratioP1;P2;durP2;ratioP2
74981;SDS011;63532;50.766;18.944;2024-01-06T14:42:13;24.58;;;8.32;;
74981;SDS011;63532;50.766;18.944;2024-01-06T14:45:19;26.45;;;7.57;;
74981;SDS011;63532;50.766;18.944;2024-01-06T14:48:24;36.00;;;11.40;;
74981;SDS011;63532;50.766;18.944;2024-01-06T14:51:30;41.78;;;11.13;;
74981;SDS011;63532;50.766;18.944;2024-01-06T14:54:35;31.73;;;9.05;;
74981;SDS011;63532;50.766;18.944;2024-01-06T14:57:41;38.13;;;11.32;;
74981;SDS011;63532;50.766;18.944;2024-01-06T15:00:46;47.45;;;12.20;;
74981;SDS011;63532;50.766;18.944;2024-01-06T15:03:52;42.40;;;12.45;;
74981;SDS011;63532;50.766;18.944;2024-01-06T15:06:57;38.03;;;9.70;;
74981;SDS011;63532;50.766;18.944;2024-01-06T15:10:03;53.63;;;14.52;;
74981;SDS011;63532;50.766;18.944;2024-01-06T15:13:12;25.95;;;8.25;;
74981;SDS011;63532;50.766;18.944;2024-01-06T15:16:17;38.53;;;12.27;;
74981;SDS011;63532;50.766;18.944;2024-01-06T15:19:23;36.08;;;11.00;;
74981;SDS011;63532;50.766;18.944;2024-01-06T15:22:31;30.77;;;10.52;;
74981;SDS011;63532;50.766;18.944;2024-01-06T15:25:39;34.83;;;10.90;;
74981;SDS011;63532;50.766;18.944;2024-01-06T15:28:46;35.03;;;10.85;;
74981;SDS011;63532;50.766;18.944;2024-01-06T15:31:51;30.65;;;10.57;;
74981;SDS011;63532;50.766;18.944;2024-01-06T15:34:59;27.20;;;9.90;;
74981;SDS011;63532;50.766;18.944;2024-01-06T15:38:04;34.92;;;9.63;;
74981;SDS011;63532;50.766;18.944;2024-01-06T15:41:09;38.00;;;10.05;;
74981;SDS011;63532;50.766;18.944;2024-01-06T15:44:16;43.47;;;12.50;;
74981;SDS011;63532;50.766;18.944;2024-01-06T15:47:21;38.67;;;11.80;;
74981;SDS011;63532;50.766;18.944;2024-01-06T15:50:25;40.95;;;11.48;;
74981;SDS011;63532;50.766;18.944;2024-01-06T15:53:31;27.77;;;7.82;;
74981;SDS011;63532;50.766;18.944;2024-01-06T15:56:35;24.98;;;7.90;;
74981;SDS011;63532;50.766;18.944;2024-01-06T15:59:42;31.77;;;9.15;;
74981;SDS011;63532;50.766;18.944;2024-01-06T16:02:47;14.80;;;5.65;;
74981;SDS011;63532;50.766;18.944;2024-01-06T16:05:52;19.95;;;7.18;;
74981;SDS011;63532;50.766;18.944;2024-01-06T16:08:57;21.20;;;7.78;;
74981;SDS011;63532;50.766;18.944;2024-01-06T16:12:02;21.13;;;7.72;;
74981;SDS011;63532;50.766;18.944;2024-01-06T16:15:10;24.98;;;7.18;;
74981;SDS011;63532;50.766;18.944;2024-01-06T16:18:15;23.67;;;7.82;;
74981;SDS011;63532;50.766;18.944;2024-01-06T16:21:23;25.55;;;7.63;;
74981;SDS011;63532;50.766;18.944;2024-01-06T16:24:31;16.40;;;6.60;;
74981;SDS011;63532;50.766;18.944;2024-01-06T16:27:36;19.67;;;7.10;;
74981;SDS011;63532;50.766;18.944;2024-01-06T16:30:42;20.00;;;5.80;;
74981;SDS011;63532;50.766;18.944;2024-01-06T16:33:47;17.27;;;5.80;;
74981;SDS011;63532;50.766;18.944;2024-01-06T16:36:52;24.45;;;6.55;;
74981;SDS011;63532;50.766;18.944;2024-01-06T16:39:58;14.57;;;5.53;;
74981;SDS011;63532;50.766;18.944;2024-01-06T16:43:03;15.35;;;5.90;;
74981;SDS011;63532;50.766;18.944;2024-01-06T16:46:10;11.48;;;5.28;;
74981;SDS011;63532;50.766;18.944;2024-01-06T16:49:16;15.98;;;4.82;;
74981;SDS011;63532;50.766;18.944;2024-01-06T16:52:21;16.02;;;5.60;;
74981;SDS011;63532;50.766;18.944;2024-01-06T16:55:26;13.18;;;5.60;;
74981;SDS011;63532;50.766;18.944;2024-01-06T16:58:31;11.35;;;5.45;;
74981;SDS011;63532;50.766;18.944;2024-01-06T17:01:38;19.15;;;6.15;;
74981;SDS011;63532;50.766;18.944;2024-01-06T17:04:43;17.38;;;5.22;;
74981;SDS011;63532;50.766;18.944;2024-01-06T17:07:48;16.35;;;5.43;;
74981;SDS011;63532;50.766;18.944;2024-01-06T17:10:55;13.90;;;5.50;;
74981;SDS011;63532;50.766;18.944;2024-01-06T17:13:59;18.23;;;6.05;;
74981;SDS011;63532;50.766;18.944;2024-01-06T17:17:06;18.38;;;4.72;;
74981;SDS011;63532;50.766;18.944;2024-01-06T17:20:11;26.40;;;8.15;;
74981;SDS011;63532;50.766;18.944;2024-01-06T17:23:16;12.30;;;5.32;;
74981;SDS011;63532;50.766;18.944;2024-01-06T17:26:21;11.70;;;4.85;;
74981;SDS011;63532;50.766;18.944;2024-01-06T17:29:26;12.82;;;4.22;;
74981;SDS011;63532;50.766;18.944;2024-01-06T17:32:33;8.82;;;3.80;;
74981;SDS011;63532;50.766;18.944;2024-01-06T17:35:38;12.18;;;4.35;;
74981;SDS011;63532;50.766;18.944;2024-01-06T17:38:43;10.32;;;4.05;;
74981;SDS011;63532;50.766;18.944;2024-01-06T17:41:48;10.15;;;3.30;;
74981;SDS011;63532;50.766;18.944;2024-01-06T17:45:01;11.77;;;3.85;;
74981;SDS011;63532;50.766;18.944;2024-01-06T17:48:12;14.93;;;5.30;;
74981;SDS011;63532;50.766;18.944;2024-01-06T17:51:18;13.82;;;4.53;;
74981;SDS011;63532;50.766;18.944;2024-01-06T17:54:26;11.50;;;3.90;;
74981;SDS011;63532;50.766;18.944;2024-01-06T17:57:31;13.73;;;4.47;;
74981;SDS011;63532;50.766;18.944;2024-01-06T18:00:37;10.20;;;4.18;;
74981;SDS011;63532;50.766;18.944;2024-01-06T18:03:44;10.50;;;4.68;;
74981;SDS011;63532;50.766;18.944;2024-01-06T18:06:49;12.50;;;3.75;;
74981;SDS011;63532;50.766;18.944;2024-01-06T18:09:54;16.30;;;5.63;;
